Aviation Digital Data Service (ADDS)

Output produced by TAFs form (0306 UTC 16 July 2018)
found at http://aviationweather.gov/adds/tafs/
 
KIPJ 160320Z AUTO 00000KT 10SM BKN120 25/22 A3006 RMK AO2 T02520215